sensor_id;sensor_type;location;lat;lon;timestamp;pressure;altitude;pressure_sealevel;temperature;humidity
78373;BME280;67656;52.074;4.758;2023-06-05T00:02:24;102438.59;;;10.60;100.00
78373;BME280;67656;52.074;4.758;2023-06-05T00:07:24;102428.03;;;10.54;100.00
78373;BME280;67656;52.074;4.758;2023-06-05T00:12:24;102427.19;;;10.49;100.00
78373;BME280;67656;52.074;4.758;2023-06-05T00:17:25;102431.59;;;10.42;100.00
78373;BME280;67656;52.074;4.758;2023-06-05T00:22:26;102422.78;;;10.35;100.00
78373;BME280;67656;52.074;4.758;2023-06-05T00:27:30;102422.75;;;10.34;100.00
78373;BME280;67656;52.074;4.758;2023-06-05T00:32:31;102423.66;;;10.31;100.00
78373;BME280;67656;52.074;4.758;2023-06-05T00:37:31;102425.41;;;10.29;100.00
78373;BME280;67656;52.074;4.758;2023-06-05T00:42:32;102416.66;;;10.27;100.00
78373;BME280;67656;52.074;4.758;2023-06-05T00:47:33;102418.41;;;10.25;100.00
78373;BME280;67656;52.074;4.758;2023-06-05T00:52:34;102421.91;;;10.14;100.00
78373;BME280;67656;52.074;4.758;2023-06-05T00:57:35;102423.69;;;10.12;100.00
78373;BME280;67656;52.074;4.758;2023-06-05T01:02:35;102418.41;;;10.09;100.00
78373;BME280;67656;52.074;4.758;2023-06-05T01:07:36;102418.38;;;10.15;100.00
78373;BME280;67656;52.074;4.758;2023-06-05T01:12:50;102422.81;;;10.13;100.00
78373;BME280;67656;52.074;4.758;2023-06-05T01:17:55;102418.41;;;10.02;100.00
78373;BME280;67656;52.074;4.758;2023-06-05T01:22:56;102422.81;;;10.06;100.00
78373;BME280;67656;52.074;4.758;2023-06-05T01:28:01;102421.91;;;10.02;100.00
78373;BME280;67656;52.074;4.758;2023-06-05T01:33:09;102403.47;;;9.96;100.00
78373;BME280;67656;52.074;4.758;2023-06-05T01:38:11;102407.88;;;9.97;100.00
78373;BME280;67656;52.074;4.758;2023-06-05T01:43:12;102411.38;;;9.87;100.00
78373;BME280;67656;52.074;4.758;2023-06-05T01:48:12;102405.22;;;9.84;100.00
78373;BME280;67656;52.074;4.758;2023-06-05T01:53:14;102410.47;;;9.83;100.00
78373;BME280;67656;52.074;4.758;2023-06-05T01:58:14;102406.97;;;9.72;100.00
78373;BME280;67656;52.074;4.758;2023-06-05T02:03:15;102399.06;;;9.67;100.00
78373;BME280;67656;52.074;4.758;2023-06-05T02:08:15;102394.66;;;9.58;100.00
78373;BME280;67656;52.074;4.758;2023-06-05T02:13:16;102399.03;;;9.51;100.00
78373;BME280;67656;52.074;4.758;2023-06-05T02:18:16;102386.75;;;9.50;100.00
78373;BME280;67656;52.074;4.758;2023-06-05T02:23:17;102392.00;;;9.44;100.00
78373;BME280;67656;52.074;4.758;2023-06-05T02:28:17;102388.47;;;9.39;100.00
78373;BME280;67656;52.074;4.758;2023-06-05T02:33:17;102385.84;;;9.34;100.00
78373;BME280;67656;52.074;4.758;2023-06-05T02:38:18;102371.78;;;9.26;100.00
78373;BME280;67656;52.074;4.758;2023-06-05T02:43:19;102396.38;;;9.28;100.00
78373;BME280;67656;52.074;4.758;2023-06-05T02:48:19;102387.56;;;9.23;100.00
78373;BME280;67656;52.074;4.758;2023-06-05T02:53:19;102393.72;;;9.19;100.00
78373;BME280;67656;52.074;4.758;2023-06-05T02:58:20;102390.19;;;9.12;100.00
78373;BME280;67656;52.074;4.758;2023-06-05T03:03:26;102393.69;;;9.08;100.00
78373;BME280;67656;52.074;4.758;2023-06-05T03:08:26;102385.75;;;9.02;100.00
78373;BME280;67656;52.074;4.758;2023-06-05T03:13:27;102385.75;;;9.00;100.00
78373;BME280;67656;52.074;4.758;2023-06-05T03:18:29;102370.84;;;8.98;100.00
78373;BME280;67656;52.074;4.758;2023-06-05T03:23:32;102380.47;;;8.94;100.00
78373;BME280;67656;52.074;4.758;2023-06-05T03:28:37;102383.06;;;8.89;100.00
78373;BME280;67656;52.074;4.758;2023-06-05T03:33:41;102381.31;;;8.88;100.00
78373;BME280;67656;52.074;4.758;2023-06-05T03:38:41;102377.84;;;8.96;100.00
78373;BME280;67656;52.074;4.758;2023-06-05T03:43:42;102375.22;;;8.94;100.00
78373;BME280;67656;52.074;4.758;2023-06-05T03:48:43;102366.41;;;8.94;100.00
78373;BME280;67656;52.074;4.758;2023-06-05T03:53:45;102377.88;;;9.05;100.00
78373;BME280;67656;52.074;4.758;2023-06-05T03:58:45;102376.97;;;9.07;100.00
78373;BME280;67656;52.074;4.758;2023-06-05T04:03:46;102388.41;;;9.13;100.00
78373;BME280;67656;52.074;4.758;2023-06-05T04:08:46;102376.13;;;9.16;100.00
78373;BME280;67656;52.074;4.758;2023-06-05T04:13:47;102380.56;;;9.24;100.00
78373;BME280;67656;52.074;4.758;2023-06-05T04:18:47;102384.97;;;9.29;100.00
78373;BME280;67656;52.074;4.758;2023-06-05T04:23:48;102373.56;;;9.43;100.00
78373;BME280;67656;52.074;4.758;2023-06-05T04:28:49;102378.84;;;9.47;100.00
78373;BME280;67656;52.074;4.758;2023-06-05T04:33:49;102376.22;;;9.60;100.00
78373;BME280;67656;52.074;4.758;2023-06-05T04:38:50;102377.09;;;9.66;100.00
78373;BME280;67656;52.074;4.758;2023-06-05T04:43:50;102376.22;;;9.75;100.00
78373;BME280;67656;52.074;4.758;2023-06-05T04:48:51;102385.00;;;9.90;100.00
78373;BME280;67656;52.074;4.758;2023-06-05T04:53:52;102380.59;;;10.03;100.00
78373;BME280;67656;52.074;4.758;2023-06-05T04:58:55;102384.97;;;10.14;100.00
78373;BME280;67656;52.074;4.758;2023-06-05T05:03:56;102395.53;;;10.27;100.00
78373;BME280;67656;52.074;4.758;2023-06-05T05:08:57;102393.75;;;10.35;100.00
78373;BME280;67656;52.074;4.758;2023-06-05T05:13:57;102381.44;;;10.40;100.00
78373;BME280;67656;52.074;4.758;2023-06-05T05:18:58;102390.22;;;10.50;100.00
78373;BME280;67656;52.074;4.758;2023-06-05T05:23:59;102386.63;;;10.65;100.00
78373;BME280;67656;52.074;4.758;2023-06-05T05:29:00;102379.59;;;10.73;100.00
78373;BME280;67656;52.074;4.758;2023-06-05T05:34:01;102375.06;;;10.97;100.00
78373;BME280;67656;52.074;4.758;2023-06-05T05:39:03;102379.97;;;11.62;100.00
78373;BME280;67656;52.074;4.758;2023-06-05T05:44:04;102377.94;;;12.78;100.00
78373;BME280;67656;52.074;4.758;2023-06-05T05:49:04;102371.22;;;13.18;100.00
78373;BME280;67656;52.074;4.758;2023-06-05T05:54:05;102366.59;;;13.32;100.00
78373;BME280;67656;52.074;4.758;2023-06-05T05:59:05;102363.94;;;13.89;100.00
78373;BME280;67656;52.074;4.758;2023-06-05T06:04:05;102368.03;;;14.54;100.00
78373;BME280;67656;52.074;4.758;2023-06-05T06:09:06;102373.38;;;14.05;100.00
78373;BME280;67656;52.074;4.758;2023-06-05T06:14:06;102367.41;;;14.85;100.00
78373;BME280;67656;52.074;4.758;2023-06-05T06:19:07;102382.09;;;14.59;100.00
78373;BME280;67656;52.074;4.758;2023-06-05T06:24:07;102369.19;;;14.40;100.00
78373;BME280;67656;52.074;4.758;2023-06-05T06:29:08;102368.53;;;14.29;100.00
78373;BME280;67656;52.074;4.758;2023-06-05T06:34:08;102372.38;;;14.58;100.00
78373;BME280;67656;52.074;4.758;2023-06-05T06:39:11;102364.72;;;15.27;100.00
78373;BME280;67656;52.074;4.758;2023-06-05T06:44:12;102367.31;;;14.91;100.00
78373;BME280;67656;52.074;4.758;2023-06-05T06:49:12;102379.38;;;14.62;100.00
78373;BME280;67656;52.074;4.758;2023-06-05T06:54:13;102374.19;;;14.56;100.00
78373;BME280;67656;52.074;4.758;2023-06-05T06:59:14;102376.97;;;15.71;100.00
78373;BME280;67656;52.074;4.758;2023-06-05T07:04:15;102382.25;;;16.08;100.00
78373;BME280;67656;52.074;4.758;2023-06-05T07:09:16;102382.41;;;16.67;100.00
78373;BME280;67656;52.074;4.758;2023-06-05T07:14:16;102380.03;;;15.54;100.00
78373;BME280;67656;52.074;4.758;2023-06-05T07:19:17;102386.28;;;15.90;100.00
78373;BME280;67656;52.074;4.758;2023-06-05T07:24:17;102378.69;;;16.08;100.00
78373;BME280;67656;52.074;4.758;2023-06-05T07:29:18;102378.09;;;16.63;100.00
78373;BME280;67656;52.074;4.758;2023-06-05T07:34:19;102372.75;;;16.31;100.00
78373;BME280;67656;52.074;4.758;2023-06-05T07:39:20;102376.22;;;16.02;100.00
78373;BME280;67656;52.074;4.758;2023-06-05T07:44:21;102381.69;;;17.22;100.00
78373;BME280;67656;52.074;4.758;2023-06-05T07:49:23;102378.56;;;16.77;100.00
78373;BME280;67656;52.074;4.758;2023-06-05T07:54:24;102376.47;;;17.18;100.00
78373;BME280;67656;52.074;4.758;2023-06-05T07:59:24;102384.94;;;17.03;100.00
78373;BME280;67656;52.074;4.758;2023-06-05T08:04:27;102382.41;;;16.98;100.00
78373;BME280;67656;52.074;4.758;2023-06-05T08:09:27;102374.09;;;18.42;100.00
78373;BME280;67656;52.074;4.758;2023-06-05T08:14:28;102379.88;;;16.92;100.00
78373;BME280;67656;52.074;4.758;2023-06-05T08:19:28;102372.44;;;18.14;100.00
78373;BME280;67656;52.074;4.758;2023-06-05T08:24:29;102368.97;;;18.10;100.00
78373;BME280;67656;52.074;4.758;2023-06-05T08:29:29;102367.63;;;17.72;100.00
78373;BME280;67656;52.074;4.758;2023-06-05T08:34:29;102363.78;;;17.54;100.00
78373;BME280;67656;52.074;4.758;2023-06-05T08:39:30;102350.28;;;18.10;100.00
78373;BME280;67656;52.074;4.758;2023-06-05T08:44:30;102362.09;;;18.54;100.00
78373;BME280;67656;52.074;4.758;2023-06-05T08:49:31;102351.94;;;18.86;100.00
78373;BME280;67656;52.074;4.758;2023-06-05T08:54:36;102356.72;;;18.30;100.00
78373;BME280;67656;52.074;4.758;2023-06-05T08:59:37;102359.91;;;18.40;100.00
78373;BME280;67656;52.074;4.758;2023-06-05T09:04:40;102357.50;;;18.57;100.00
78373;BME280;67656;52.074;4.758;2023-06-05T09:09:42;102359.59;;;18.24;100.00
78373;BME280;67656;52.074;4.758;2023-06-05T09:14:43;102354.75;;;18.59;100.00
78373;BME280;67656;52.074;4.758;2023-06-05T09:19:44;102358.81;;;18.93;100.00
78373;BME280;67656;52.074;4.758;2023-06-05T09:24:56;102352.09;;;18.83;100.00
78373;BME280;67656;52.074;4.758;2023-06-05T09:30:02;102355.81;;;18.79;100.00
78373;BME280;67656;52.074;4.758;2023-06-05T09:35:03;102346.56;;;19.54;100.00
78373;BME280;67656;52.074;4.758;2023-06-05T09:40:04;102353.56;;;18.90;100.00
78373;BME280;67656;52.074;4.758;2023-06-05T09:45:05;102348.56;;;20.13;100.00
78373;BME280;67656;52.074;4.758;2023-06-05T09:50:20;102344.28;;;19.00;100.00
78373;BME280;67656;52.074;4.758;2023-06-05T09:55:22;102339.38;;;19.77;100.00
78373;BME280;67656;52.074;4.758;2023-06-05T10:00:26;102348.56;;;19.49;100.00
78373;BME280;67656;52.074;4.758;2023-06-05T10:05:27;102346.13;;;19.65;100.00
78373;BME280;67656;52.074;4.758;2023-06-05T10:10:29;102332.88;;;20.24;100.00
78373;BME280;67656;52.074;4.758;2023-06-05T10:15:31;102337.91;;;19.70;100.00
78373;BME280;67656;52.074;4.758;2023-06-05T10:20:34;102329.53;;;19.77;100.00
78373;BME280;67656;52.074;4.758;2023-06-05T10:25:34;102333.81;;;19.39;100.00
78373;BME280;67656;52.074;4.758;2023-06-05T10:40:55;102326.50;;;19.85;100.00
78373;BME280;67656;52.074;4.758;2023-06-05T10:45:57;102319.28;;;19.01;100.00
78373;BME280;67656;52.074;4.758;2023-06-05T10:56:52;102312.28;;;20.83;97.71
78373;BME280;67656;52.074;4.758;2023-06-05T11:07:28;102313.63;;;20.35;100.00
78373;BME280;67656;52.074;4.758;2023-06-05T11:17:36;102304.38;;;20.80;97.14
78373;BME280;67656;52.074;4.758;2023-06-05T11:28:05;102297.69;;;20.32;100.00
78373;BME280;67656;52.074;4.758;2023-06-05T11:33:09;102296.78;;;20.31;100.00
78373;BME280;67656;52.074;4.758;2023-06-05T11:43:14;102286.66;;;20.57;100.00
78373;BME280;67656;52.074;4.758;2023-06-05T11:48:15;102280.09;;;20.83;100.00
78373;BME280;67656;52.074;4.758;2023-06-05T11:53:15;102285.19;;;21.07;97.01
78373;BME280;67656;52.074;4.758;2023-06-05T11:58:29;102274.41;;;20.51;99.07
78373;BME280;67656;52.074;4.758;2023-06-05T12:03:30;102277.41;;;20.83;100.00
78373;BME280;67656;52.074;4.758;2023-06-05T12:08:33;102266.72;;;21.54;98.23
78373;BME280;67656;52.074;4.758;2023-06-05T12:13:50;102273.19;;;20.39;100.00
78373;BME280;67656;52.074;4.758;2023-06-05T12:18:51;102277.66;;;20.39;100.00
78373;BME280;67656;52.074;4.758;2023-06-05T12:24:01;102271.97;;;21.22;100.00
78373;BME280;67656;52.074;4.758;2023-06-05T12:29:06;102265.28;;;20.94;100.00
78373;BME280;67656;52.074;4.758;2023-06-05T12:34:06;102267.03;;;20.95;100.00
78373;BME280;67656;52.074;4.758;2023-06-05T12:39:13;102261.44;;;20.80;100.00
78373;BME280;67656;52.074;4.758;2023-06-05T12:44:13;102258.50;;;21.04;100.00
78373;BME280;67656;52.074;4.758;2023-06-05T12:49:14;102256.63;;;21.41;99.06
78373;BME280;67656;52.074;4.758;2023-06-05T12:54:14;102249.34;;;21.08;100.00
78373;BME280;67656;52.074;4.758;2023-06-05T12:59:14;102254.19;;;21.37;100.00
78373;BME280;67656;52.074;4.758;2023-06-05T13:04:15;102248.41;;;21.62;98.88
78373;BME280;67656;52.074;4.758;2023-06-05T13:09:15;102248.88;;;21.17;100.00
78373;BME280;67656;52.074;4.758;2023-06-05T13:14:15;102227.78;;;21.45;100.00
78373;BME280;67656;52.074;4.758;2023-06-05T13:19:16;102227.41;;;21.17;100.00
78373;BME280;67656;52.074;4.758;2023-06-05T13:24:17;102218.72;;;21.65;97.48
78373;BME280;67656;52.074;4.758;2023-06-05T13:29:17;102220.22;;;21.53;100.00
78373;BME280;67656;52.074;4.758;2023-06-05T13:34:17;102205.69;;;21.22;100.00
78373;BME280;67656;52.074;4.758;2023-06-05T13:39:18;102202.75;;;22.12;92.92
78373;BME280;67656;52.074;4.758;2023-06-05T13:44:18;102191.00;;;21.98;94.54
78373;BME280;67656;52.074;4.758;2023-06-05T13:49:19;102200.88;;;21.46;100.00
78373;BME280;67656;52.074;4.758;2023-06-05T13:54:19;102204.00;;;21.55;99.54
78373;BME280;67656;52.074;4.758;2023-06-05T13:59:19;102202.75;;;21.27;100.00
78373;BME280;67656;52.074;4.758;2023-06-05T14:04:20;102200.81;;;21.13;100.00
78373;BME280;67656;52.074;4.758;2023-06-05T14:09:21;102192.31;;;21.73;97.88
78373;BME280;67656;52.074;4.758;2023-06-05T14:14:24;102194.63;;;21.46;98.90
78373;BME280;67656;52.074;4.758;2023-06-05T14:19:25;102188.72;;;21.90;96.41
78373;BME280;67656;52.074;4.758;2023-06-05T14:24:25;102184.50;;;21.51;97.57
78373;BME280;67656;52.074;4.758;2023-06-05T14:29:26;102181.69;;;21.19;100.00
78373;BME280;67656;52.074;4.758;2023-06-05T14:34:26;102174.94;;;21.63;98.80
78373;BME280;67656;52.074;4.758;2023-06-05T14:39:26;102171.50;;;21.26;100.00
78373;BME280;67656;52.074;4.758;2023-06-05T14:44:27;102167.81;;;21.96;95.76
78373;BME280;67656;52.074;4.758;2023-06-05T14:49:27;102168.50;;;20.79;100.00
78373;BME280;67656;52.074;4.758;2023-06-05T14:54:27;102175.59;;;21.33;98.30
78373;BME280;67656;52.074;4.758;2023-06-05T14:59:28;102171.19;;;20.97;100.00
78373;BME280;67656;52.074;4.758;2023-06-05T15:04:28;102162.94;;;21.53;98.40
78373;BME280;67656;52.074;4.758;2023-06-05T15:09:29;102168.50;;;21.14;100.00
78373;BME280;67656;52.074;4.758;2023-06-05T15:14:29;102163.94;;;21.16;97.57
78373;BME280;67656;52.074;4.758;2023-06-05T15:19:29;102171.19;;;21.14;100.00
78373;BME280;67656;52.074;4.758;2023-06-05T15:24:30;102168.03;;;21.06;98.70
78373;BME280;67656;52.074;4.758;2023-06-05T15:29:30;102162.28;;;20.79;100.00
78373;BME280;67656;52.074;4.758;2023-06-05T15:34:30;102146.81;;;20.47;100.00
78373;BME280;67656;52.074;4.758;2023-06-05T15:39:31;102147.19;;;20.20;100.00
78373;BME280;67656;52.074;4.758;2023-06-05T15:44:31;102152.22;;;20.46;100.00
78373;BME280;67656;52.074;4.758;2023-06-05T15:49:32;102155.09;;;20.60;100.00
78373;BME280;67656;52.074;4.758;2023-06-05T15:54:32;102154.50;;;20.17;100.00
78373;BME280;67656;52.074;4.758;2023-06-05T15:59:32;102152.47;;;20.41;100.00
78373;BME280;67656;52.074;4.758;2023-06-05T16:04:33;102146.09;;;20.24;100.00
78373;BME280;67656;52.074;4.758;2023-06-05T16:09:34;102134.97;;;19.95;100.00
78373;BME280;67656;52.074;4.758;2023-06-05T16:14:34;102135.81;;;20.15;100.00
78373;BME280;67656;52.074;4.758;2023-06-05T16:19:34;102143.06;;;19.94;100.00
78373;BME280;67656;52.074;4.758;2023-06-05T16:24:35;102141.19;;;19.56;100.00
78373;BME280;67656;52.074;4.758;2023-06-05T16:29:35;102139.47;;;19.34;100.00
78373;BME280;67656;52.074;4.758;2023-06-05T16:34:36;102141.41;;;19.52;100.00
78373;BME280;67656;52.074;4.758;2023-06-05T16:39:36;102134.72;;;19.41;100.00
78373;BME280;67656;52.074;4.758;2023-06-05T16:44:36;102140.31;;;19.56;100.00
78373;BME280;67656;52.074;4.758;2023-06-05T16:49:37;102138.66;;;19.53;100.00
78373;BME280;67656;52.074;4.758;2023-06-05T16:54:37;102132.19;;;19.38;100.00
78373;BME280;67656;52.074;4.758;2023-06-05T16:59:38;102125.31;;;19.12;100.00
78373;BME280;67656;52.074;4.758;2023-06-05T17:04:38;102123.44;;;19.14;100.00
78373;BME280;67656;52.074;4.758;2023-06-05T17:09:39;102120.81;;;19.33;100.00
78373;BME280;67656;52.074;4.758;2023-06-05T17:14:40;102131.22;;;19.20;100.00
78373;BME280;67656;52.074;4.758;2023-06-05T17:19:40;102132.00;;;18.79;100.00
78373;BME280;67656;52.074;4.758;2023-06-05T17:24:42;102126.00;;;18.52;100.00
78373;BME280;67656;52.074;4.758;2023-06-05T17:29:42;102127.53;;;18.80;100.00
78373;BME280;67656;52.074;4.758;2023-06-05T17:34:43;102125.81;;;18.34;100.00
78373;BME280;67656;52.074;4.758;2023-06-05T17:39:43;102121.28;;;18.36;100.00
78373;BME280;67656;52.074;4.758;2023-06-05T17:44:43;102127.06;;;18.48;100.00
78373;BME280;67656;52.074;4.758;2023-06-05T17:49:44;102127.75;;;18.31;100.00
78373;BME280;67656;52.074;4.758;2023-06-05T17:54:44;102126.38;;;17.96;100.00
78373;BME280;67656;52.074;4.758;2023-06-05T17:59:45;102124.13;;;17.86;100.00
78373;BME280;67656;52.074;4.758;2023-06-05T18:04:45;102122.16;;;17.91;100.00
78373;BME280;67656;52.074;4.758;2023-06-05T18:09:45;102126.84;;;17.60;100.00
78373;BME280;67656;52.074;4.758;2023-06-05T18:14:46;102124.63;;;17.23;100.00
78373;BME280;67656;52.074;4.758;2023-06-05T18:19:47;102123.63;;;16.73;100.00
78373;BME280;67656;52.074;4.758;2023-06-05T18:24:47;102133.28;;;16.50;100.00
78373;BME280;67656;52.074;4.758;2023-06-05T18:29:47;102129.25;;;16.37;100.00
78373;BME280;67656;52.074;4.758;2023-06-05T18:34:48;102143.19;;;16.17;100.00
78373;BME280;67656;52.074;4.758;2023-06-05T18:39:48;102138.69;;;15.90;100.00
78373;BME280;67656;52.074;4.758;2023-06-05T18:44:49;102137.41;;;15.71;100.00
78373;BME280;67656;52.074;4.758;2023-06-05T18:49:49;102143.44;;;15.46;100.00
78373;BME280;67656;52.074;4.758;2023-06-05T18:54:50;102149.19;;;15.30;100.00
78373;BME280;67656;52.074;4.758;2023-06-05T18:59:50;102152.25;;;15.15;100.00
78373;BME280;67656;52.074;4.758;2023-06-05T19:04:50;102146.50;;;14.97;100.00
78373;BME280;67656;52.074;4.758;2023-06-05T19:09:51;102156.78;;;14.77;100.00
78373;BME280;67656;52.074;4.758;2023-06-05T19:14:51;102150.09;;;14.57;100.00
78373;BME280;67656;52.074;4.758;2023-06-05T19:19:52;102155.72;;;14.44;100.00
78373;BME280;67656;52.074;4.758;2023-06-05T19:24:52;102158.59;;;14.35;100.00
78373;BME280;67656;52.074;4.758;2023-06-05T19:29:52;102165.13;;;14.19;100.00
78373;BME280;67656;52.074;4.758;2023-06-05T19:34:53;102164.72;;;13.98;100.00
78373;BME280;67656;52.074;4.758;2023-06-05T19:39:53;102176.47;;;13.85;100.00
78373;BME280;67656;52.074;4.758;2023-06-05T19:44:54;102180.84;;;13.87;100.00
78373;BME280;67656;52.074;4.758;2023-06-05T19:49:54;102172.75;;;13.49;100.00
78373;BME280;67656;52.074;4.758;2023-06-05T19:54:55;102192.16;;;13.50;100.00
78373;BME280;67656;52.074;4.758;2023-06-05T19:59:55;102189.81;;;13.33;100.00
78373;BME280;67656;52.074;4.758;2023-06-05T20:04:55;102193.66;;;13.15;100.00
78373;BME280;67656;52.074;4.758;2023-06-05T20:09:56;102193.84;;;13.04;100.00
78373;BME280;67656;52.074;4.758;2023-06-05T20:14:56;102197.66;;;12.87;100.00
78373;BME280;67656;52.074;4.758;2023-06-05T20:19:57;102199.53;;;12.79;100.00
78373;BME280;67656;52.074;4.758;2023-06-05T20:24:57;102198.66;;;12.79;100.00
78373;BME280;67656;52.074;4.758;2023-06-05T20:29:57;102196.16;;;12.68;100.00
78373;BME280;67656;52.074;4.758;2023-06-05T20:34:58;102202.53;;;12.56;100.00
78373;BME280;67656;52.074;4.758;2023-06-05T20:39:59;102204.47;;;12.43;100.00
78373;BME280;67656;52.074;4.758;2023-06-05T20:44:59;102198.38;;;12.38;100.00
78373;BME280;67656;52.074;4.758;2023-06-05T20:50:00;102205.47;;;12.36;100.00
78373;BME280;67656;52.074;4.758;2023-06-05T20:55:00;102215.28;;;12.26;100.00
78373;BME280;67656;52.074;4.758;2023-06-05T21:00:01;102219.78;;;12.19;100.00
78373;BME280;67656;52.074;4.758;2023-06-05T21:05:01;102222.38;;;12.24;100.00
78373;BME280;67656;52.074;4.758;2023-06-05T21:10:02;102224.25;;;12.16;100.00
78373;BME280;67656;52.074;4.758;2023-06-05T21:15:02;102221.72;;;12.05;100.00
78373;BME280;67656;52.074;4.758;2023-06-05T21:20:04;102218.19;;;12.06;100.00
78373;BME280;67656;52.074;4.758;2023-06-05T21:25:05;102221.81;;;11.98;100.00
78373;BME280;67656;52.074;4.758;2023-06-05T21:30:06;102220.94;;;11.95;100.00
78373;BME280;67656;52.074;4.758;2023-06-05T21:35:07;102220.94;;;11.93;100.00
78373;BME280;67656;52.074;4.758;2023-06-05T21:40:07;102232.53;;;11.83;100.00
78373;BME280;67656;52.074;4.758;2023-06-05T21:45:08;102229.84;;;11.84;100.00
78373;BME280;67656;52.074;4.758;2023-06-05T21:50:09;102219.31;;;11.80;100.00
78373;BME280;67656;52.074;4.758;2023-06-05T21:55:10;102221.22;;;11.68;100.00
78373;BME280;67656;52.074;4.758;2023-06-05T22:00:10;102223.94;;;11.62;100.00
78373;BME280;67656;52.074;4.758;2023-06-05T22:05:15;102222.09;;;11.67;100.00
78373;BME280;67656;52.074;4.758;2023-06-05T22:10:16;102216.91;;;11.58;100.00
78373;BME280;67656;52.074;4.758;2023-06-05T22:15:16;102224.94;;;11.52;100.00
78373;BME280;67656;52.074;4.758;2023-06-05T22:20:17;102233.78;;;11.48;100.00
78373;BME280;67656;52.074;4.758;2023-06-05T22:25:17;102240.00;;;11.42;100.00
78373;BME280;67656;52.074;4.758;2023-06-05T22:30:18;102241.84;;;11.32;100.00
78373;BME280;67656;52.074;4.758;2023-06-05T22:35:19;102241.91;;;11.25;100.00
78373;BME280;67656;52.074;4.758;2023-06-05T22:40:19;102243.72;;;11.18;100.00
78373;BME280;67656;52.074;4.758;2023-06-05T22:45:20;102245.53;;;11.10;100.00
78373;BME280;67656;52.074;4.758;2023-06-05T22:50:20;102250.84;;;11.06;100.00
78373;BME280;67656;52.074;4.758;2023-06-05T22:55:20;102261.47;;;11.00;100.00
78373;BME280;67656;52.074;4.758;2023-06-05T23:00:21;102265.00;;;10.96;100.00
78373;BME280;67656;52.074;4.758;2023-06-05T23:05:22;102256.22;;;10.91;100.00
78373;BME280;67656;52.074;4.758;2023-06-05T23:10:22;102266.81;;;10.89;100.00
78373;BME280;67656;52.074;4.758;2023-06-05T23:15:23;102267.72;;;10.84;100.00
78373;BME280;67656;52.074;4.758;2023-06-05T23:20:23;102266.84;;;10.82;100.00
78373;BME280;67656;52.074;4.758;2023-06-05T23:25:23;102260.75;;;10.75;100.00
78373;BME280;67656;52.074;4.758;2023-06-05T23:30:24;102263.41;;;10.73;100.00
78373;BME280;67656;52.074;4.758;2023-06-05T23:35:24;102266.03;;;10.73;100.00
78373;BME280;67656;52.074;4.758;2023-06-05T23:40:25;102264.31;;;10.68;100.00
78373;BME280;67656;52.074;4.758;2023-06-05T23:45:28;102266.06;;;10.69;100.00
78373;BME280;67656;52.074;4.758;2023-06-05T23:50:29;102257.31;;;10.59;100.00
78373;BME280;67656;52.074;4.758;2023-06-05T23:55:29;102264.34;;;10.60;100.00
